Time;durP1;ratioP1;P1;durP2;ratioP2;P2;SDS_P1;SDS_P2;PMS_P1;PMS_P2;Temp;Humidity;BMP_temperature;BMP_pressure;BME280_temperature;BME280_humidity;BME280_pressure;Samples;Min_cycle;Max_cycle;Signal;HPM_P1;HPM_P2
2023/04/15 00:01:59;;;;;;;3.77;3.37;;;;;;;;;;5046161;28;20212;-57
2023/04/15 00:04:26;;;;;;;8.67;3.53;;;;;;;;;;5049156;28;20298;-57
2023/04/15 00:06:54;;;;;;;4.80;2.90;;;;;;;;;;5049989;28;20219;-57
2023/04/15 00:09:21;;;;;;;5.80;2.83;;;;;;;;;;5050350;28;20199;-57
2023/04/15 00:11:48;;;;;;;2.20;2.00;;;;;;;;;;5050417;28;20203;-58
2023/04/15 00:14:16;;;;;;;3.80;2.30;;;;;;;;;;5049975;28;20561;-57
2023/04/15 00:16:43;;;;;;;4.93;2.33;;;;;;;;;;5050513;28;20208;-58
2023/04/15 00:19:11;;;;;;;1.70;1.60;;;;;;;;;;5050287;28;20215;-57
2023/04/15 00:21:38;;;;;;;4.67;2.10;;;;;;;;;;5050061;28;20698;-57
2023/04/15 00:24:05;;;;;;;1.90;1.60;;;;;;;;;;5059294;28;20253;-57
2023/04/15 00:26:32;;;;;;;3.10;1.90;;;;;;;;;;5061607;28;20223;-57
2023/04/15 00:28:59;;;;;;;3.60;2.33;;;;;;;;;;5052059;28;20569;-57
2023/04/15 00:31:28;;;;;;;3.67;2.43;;;;;;;;;;5063693;28;20214;-57
2023/04/15 00:33:55;;;;;;;2.27;1.90;;;;;;;;;;5066031;28;20219;-57
2023/04/15 00:36:23;;;;;;;1.50;1.40;;;;;;;;;;5061772;28;20606;-58
2023/04/15 00:38:50;;;;;;;1.30;1.20;;;;;;;;;;5061656;28;20235;-57
2023/04/15 00:41:18;;;;;;;2.50;1.03;;;;;;;;;;5065939;28;20203;-57
2023/04/15 00:43:45;;;;;;;1.53;1.43;;;;;;;;;;5066697;28;20207;-57
2023/04/15 00:46:13;;;;;;;1.10;1.00;;;;;;;;;;5058557;28;20235;-57
2023/04/15 00:48:42;;;;;;;1.07;0.97;;;;;;;;;;5051183;28;20206;-57
2023/04/15 00:51:09;;;;;;;8.77;1.40;;;;;;;;;;5061661;28;20208;-57
2023/04/15 00:53:36;;;;;;;0.93;0.93;;;;;;;;;;5057601;28;20215;-57
2023/04/15 00:56:03;;;;;;;3.73;0.87;;;;;;;;;;5065951;28;20214;-57
2023/04/15 00:58:30;;;;;;;2.37;1.20;;;;;;;;;;5060267;28;20206;-57
2023/04/15 01:00:57;;;;;;;1.63;1.10;;;;;;;;;;5055393;28;20226;-57
2023/04/15 01:03:25;;;;;;;5.53;1.47;;;;;;;;;;5047467;28;20684;-57
2023/04/15 01:05:57;;;;;;;1.20;1.10;;;;;;;;;;5055344;28;20302;-57
2023/04/15 01:08:24;;;;;;;1.30;1.30;;;;;;;;;;5056094;28;20664;-58
2023/04/15 01:10:51;;;;;;;1.03;1.00;;;;;;;;;;5066074;28;20645;-57
2023/04/15 01:13:18;;;;;;;1.50;1.30;;;;;;;;;;5055409;28;20708;-57
2023/04/15 01:15:45;;;;;;;1.73;1.33;;;;;;;;;;5061034;28;20319;-58
2023/04/15 01:18:13;;;;;;;2.63;1.57;;;;;;;;;;5064304;28;20550;-58
2023/04/15 01:20:40;;;;;;;3.27;1.37;;;;;;;;;;5050677;28;20688;-58
2023/04/15 01:23:08;;;;;;;1.17;1.07;;;;;;;;;;5050760;28;20223;-56
2023/04/15 01:25:37;;;;;;;6.13;1.40;;;;;;;;;;5064782;28;20215;-56
2023/04/15 01:28:04;;;;;;;1.07;1.07;;;;;;;;;;5062283;28;20235;-57
2023/04/15 01:30:34;;;;;;;2.33;1.30;;;;;;;;;;5065711;28;20267;-56
2023/04/15 01:33:01;;;;;;;4.20;1.10;;;;;;;;;;5057753;28;20265;-56
2023/04/15 01:35:28;;;;;;;1.17;1.07;;;;;;;;;;5056995;28;20208;-56
2023/04/15 01:38:00;;;;;;;1.30;1.20;;;;;;;;;;5051866;28;20205;-57
2023/04/15 01:40:33;;;;;;;1.20;1.10;;;;;;;;;;5053134;28;20235;-57
2023/04/15 01:43:01;;;;;;;0.70;0.70;;;;;;;;;;5048636;28;20689;-57
2023/04/15 01:45:30;;;;;;;1.57;1.20;;;;;;;;;;5048514;28;20650;-56
2023/04/15 01:47:57;;;;;;;2.67;1.53;;;;;;;;;;5048658;28;20226;-56
2023/04/15 01:50:24;;;;;;;1.10;1.10;;;;;;;;;;5048224;28;20661;-58
2023/04/15 01:52:52;;;;;;;1.70;1.10;;;;;;;;;;5048602;28;20204;-56
2023/04/15 01:55:19;;;;;;;0.93;0.93;;;;;;;;;;5048782;28;20741;-56
2023/04/15 01:57:46;;;;;;;2.20;1.03;;;;;;;;;;5048176;28;20203;-57
2023/04/15 02:00:15;;;;;;;1.90;1.63;;;;;;;;;;5059403;28;20272;-56
2023/04/15 02:02:42;;;;;;;3.37;2.17;;;;;;;;;;5063329;28;20210;-56
2023/04/15 02:05:09;;;;;;;6.03;1.90;;;;;;;;;;5066715;28;20211;-56
2023/04/15 02:07:37;;;;;;;3.03;1.20;;;;;;;;;;5058188;28;20223;-56
2023/04/15 02:10:04;;;;;;;5.60;1.80;;;;;;;;;;5053349;28;20302;-56
2023/04/15 02:12:31;;;;;;;2.03;1.53;;;;;;;;;;5058688;28;20211;-56
2023/04/15 02:14:58;;;;;;;1.60;1.27;;;;;;;;;;5052007;28;20691;-56
2023/04/15 02:17:26;;;;;;;2.13;1.53;;;;;;;;;;5064055;28;20214;-56
2023/04/15 02:19:53;;;;;;;1.30;1.20;;;;;;;;;;5065916;28;20256;-56
2023/04/15 02:22:21;;;;;;;2.40;1.30;;;;;;;;;;5059817;28;20596;-56
2023/04/15 02:24:48;;;;;;;2.30;1.13;;;;;;;;;;5050678;28;20593;-56
2023/04/15 02:27:18;;;;;;;1.90;1.43;;;;;;;;;;5058793;28;20223;-56
2023/04/15 02:29:45;;;;;;;2.20;1.33;;;;;;;;;;5063459;28;20209;-56
2023/04/15 02:32:12;;;;;;;5.90;1.10;;;;;;;;;;5068314;28;20282;-56
2023/04/15 02:34:41;;;;;;;0.73;0.73;;;;;;;;;;5066434;28;20280;-56
2023/04/15 02:37:08;;;;;;;2.40;1.30;;;;;;;;;;5059955;28;20286;-56
2023/04/15 02:39:35;;;;;;;1.27;1.03;;;;;;;;;;5056725;28;20223;-56
2023/04/15 02:42:03;;;;;;;2.33;1.30;;;;;;;;;;5065040;28;20213;-56
2023/04/15 02:44:31;;;;;;;1.00;1.00;;;;;;;;;;5049779;28;20208;-56
2023/04/15 02:46:58;;;;;;;3.10;1.17;;;;;;;;;;5056629;28;20223;-56
2023/04/15 02:49:28;;;;;;;1.57;1.37;;;;;;;;;;5062527;28;20207;-56
2023/04/15 02:51:57;;;;;;;2.53;1.00;;;;;;;;;;5061652;28;20201;-56
2023/04/15 02:54:24;;;;;;;1.03;1.03;;;;;;;;;;5063410;28;20214;-56
2023/04/15 02:56:54;;;;;;;5.80;1.17;;;;;;;;;;5063746;28;20203;-56
2023/04/15 02:59:21;;;;;;;1.40;0.80;;;;;;;;;;5065562;28;20209;-56
2023/04/15 03:01:48;;;;;;;1.40;1.10;;;;;;;;;;5046708;28;20200;-56
2023/04/15 03:04:15;;;;;;;1.00;1.00;;;;;;;;;;5047368;28;20252;-56
2023/04/15 03:06:42;;;;;;;0.90;0.90;;;;;;;;;;5062640;28;20210;-56
2023/04/15 03:09:10;;;;;;;0.70;0.70;;;;;;;;;;5051956;28;20266;-56
2023/04/15 03:11:39;;;;;;;1.63;1.30;;;;;;;;;;5049085;28;20218;-56
2023/04/15 03:14:06;;;;;;;2.43;1.37;;;;;;;;;;5047976;28;20299;-56
2023/04/15 03:16:33;;;;;;;1.30;1.17;;;;;;;;;;5048142;28;20205;-56
2023/04/15 03:19:00;;;;;;;1.63;1.53;;;;;;;;;;5049746;28;20211;-56
2023/04/15 03:21:27;;;;;;;1.07;1.00;;;;;;;;;;5047372;28;20583;-56
2023/04/15 03:23:55;;;;;;;1.20;1.20;;;;;;;;;;5050752;28;20230;-56
2023/04/15 03:26:27;;;;;;;3.07;1.80;;;;;;;;;;5053868;28;20248;-56
2023/04/15 03:28:54;;;;;;;1.20;1.10;;;;;;;;;;5067481;28;20665;-56
2023/04/15 03:31:21;;;;;;;1.33;1.27;;;;;;;;;;5058816;28;20206;-56
2023/04/15 03:33:48;;;;;;;3.30;1.87;;;;;;;;;;5056465;28;20208;-56
2023/04/15 03:36:15;;;;;;;0.83;0.83;;;;;;;;;;5064237;28;20256;-56
2023/04/15 03:38:42;;;;;;;2.50;1.20;;;;;;;;;;5050864;28;20315;-56
2023/04/15 03:41:09;;;;;;;3.27;1.87;;;;;;;;;;5050437;28;20205;-56
2023/04/15 03:43:38;;;;;;;2.57;1.83;;;;;;;;;;5065976;28;20213;-56
2023/04/15 03:46:05;;;;;;;1.30;1.30;;;;;;;;;;5055229;28;20209;-56
2023/04/15 03:48:32;;;;;;;3.27;1.77;;;;;;;;;;5048337;28;20234;-56
2023/04/15 03:50:59;;;;;;;4.07;1.80;;;;;;;;;;5057972;28;20315;-56
2023/04/15 03:53:26;;;;;;;2.63;2.33;;;;;;;;;;5054302;28;20554;-56
2023/04/15 03:55:53;;;;;;;1.80;1.60;;;;;;;;;;5065203;28;20256;-56
2023/04/15 03:58:20;;;;;;;1.63;1.37;;;;;;;;;;5061877;28;20203;-56
2023/04/15 04:00:49;;;;;;;1.67;1.57;;;;;;;;;;5049291;28;20221;-56
2023/04/15 04:03:16;;;;;;;1.70;1.60;;;;;;;;;;5047961;28;20212;-56
2023/04/15 04:05:43;;;;;;;2.90;1.70;;;;;;;;;;5049580;28;20206;-56
2023/04/15 04:08:12;;;;;;;2.73;1.67;;;;;;;;;;5060466;28;20392;-56
2023/04/15 04:10:39;;;;;;;1.80;1.30;;;;;;;;;;5052375;28;20202;-56
2023/04/15 04:13:06;;;;;;;1.77;1.63;;;;;;;;;;5046981;28;20203;-56
2023/04/15 04:15:33;;;;;;;1.50;1.50;;;;;;;;;;5046956;28;20201;-56
2023/04/15 04:18:02;;;;;;;3.17;2.13;;;;;;;;;;5046669;28;20204;-56
2023/04/15 04:20:30;;;;;;;4.43;2.00;;;;;;;;;;5047191;28;20204;-56
2023/04/15 04:22:57;;;;;;;2.17;1.57;;;;;;;;;;5053101;28;20223;-56
2023/04/15 04:25:24;;;;;;;1.70;1.47;;;;;;;;;;5059069;28;20609;-56
2023/04/15 04:27:51;;;;;;;1.63;1.53;;;;;;;;;;5058260;28;20228;-56
2023/04/15 04:30:19;;;;;;;4.03;2.07;;;;;;;;;;5066637;28;20218;-56
2023/04/15 04:32:46;;;;;;;2.10;1.90;;;;;;;;;;5062803;28;20234;-56
2023/04/15 04:35:14;;;;;;;2.33;1.97;;;;;;;;;;5062898;28;20436;-56
2023/04/15 04:37:41;;;;;;;4.20;2.50;;;;;;;;;;5054820;28;20237;-56
2023/04/15 04:40:09;;;;;;;1.77;1.70;;;;;;;;;;5058002;28;20262;-56
2023/04/15 04:42:36;;;;;;;4.93;2.07;;;;;;;;;;5049119;28;20215;-56
2023/04/15 04:45:03;;;;;;;5.10;2.30;;;;;;;;;;5066343;28;20217;-56
2023/04/15 04:47:30;;;;;;;3.60;2.20;;;;;;;;;;5048400;28;20225;-56
2023/04/15 04:49:57;;;;;;;2.10;1.90;;;;;;;;;;5055850;28;20207;-56
2023/04/15 04:52:26;;;;;;;3.60;2.17;;;;;;;;;;5050459;28;20208;-56
2023/04/15 04:54:53;;;;;;;5.10;2.40;;;;;;;;;;5062305;28;20266;-56
2023/04/15 04:57:20;;;;;;;7.50;2.30;;;;;;;;;;5053595;28;20866;-56
2023/04/15 04:59:47;;;;;;;2.53;2.00;;;;;;;;;;5064092;28;20207;-56
2023/04/15 05:02:14;;;;;;;2.80;2.10;;;;;;;;;;5057640;28;20268;-56
2023/04/15 05:04:41;;;;;;;8.73;2.60;;;;;;;;;;5060989;28;20257;-56
2023/04/15 05:07:08;;;;;;;2.53;2.30;;;;;;;;;;5055852;28;20239;-56
2023/04/15 05:09:36;;;;;;;3.93;2.03;;;;;;;;;;5051716;28;20208;-56
2023/04/15 05:12:04;;;;;;;5.27;3.23;;;;;;;;;;5051307;28;20212;-56
2023/04/15 05:14:32;;;;;;;3.30;2.00;;;;;;;;;;5051578;28;20277;-56
2023/04/15 05:16:59;;;;;;;5.07;1.90;;;;;;;;;;5060770;28;20260;-56
2023/04/15 05:19:26;;;;;;;6.00;2.07;;;;;;;;;;5058021;28;20312;-56
2023/04/15 05:21:53;;;;;;;2.47;1.63;;;;;;;;;;5053912;28;20198;-56
2023/04/15 05:24:20;;;;;;;1.60;1.50;;;;;;;;;;5064144;28;20203;-56
2023/04/15 05:26:48;;;;;;;4.10;2.37;;;;;;;;;;5069447;28;20306;-57
2023/04/15 05:29:15;;;;;;;2.30;2.00;;;;;;;;;;5055371;28;20701;-56
2023/04/15 05:31:43;;;;;;;2.60;2.07;;;;;;;;;;5060786;28;20688;-56
2023/04/15 05:34:10;;;;;;;4.07;2.60;;;;;;;;;;5067562;28;20206;-56
2023/04/15 05:36:37;;;;;;;2.40;1.67;;;;;;;;;;5062008;28;20304;-57
2023/04/15 05:39:04;;;;;;;5.53;2.30;;;;;;;;;;5060353;28;20239;-56
2023/04/15 05:41:33;;;;;;;3.33;2.00;;;;;;;;;;5051010;28;20214;-56
2023/04/15 05:44:01;;;;;;;2.37;2.10;;;;;;;;;;5057489;28;20296;-56
2023/04/15 05:46:28;;;;;;;3.03;1.67;;;;;;;;;;5048552;28;20320;-56
2023/04/15 05:48:56;;;;;;;4.43;1.93;;;;;;;;;;5049207;28;20223;-56
2023/04/15 05:51:23;;;;;;;4.87;2.40;;;;;;;;;;5049055;28;20212;-56
2023/04/15 05:53:50;;;;;;;2.27;2.07;;;;;;;;;;5052579;28;20203;-57
2023/04/15 05:56:17;;;;;;;4.57;2.33;;;;;;;;;;5049389;28;20254;-56
2023/04/15 05:58:44;;;;;;;2.63;1.73;;;;;;;;;;5058627;28;20210;-56
2023/04/15 06:01:12;;;;;;;3.93;2.27;;;;;;;;;;5053075;28;20213;-56
2023/04/15 06:03:39;;;;;;;2.17;1.97;;;;;;;;;;5062476;28;20712;-56
2023/04/15 06:06:07;;;;;;;2.37;2.00;;;;;;;;;;5057563;28;20727;-56
2023/04/15 06:08:34;;;;;;;6.07;2.20;;;;;;;;;;5061039;28;20276;-56
2023/04/15 06:11:01;;;;;;;1.87;1.77;;;;;;;;;;5049092;28;20214;-56
2023/04/15 06:13:28;;;;;;;2.30;2.10;;;;;;;;;;5052047;28;20204;-58
2023/04/15 06:15:55;;;;;;;4.87;2.10;;;;;;;;;;5067728;28;20204;-56
2023/04/15 06:18:24;;;;;;;7.10;2.27;;;;;;;;;;5059363;28;20214;-57
2023/04/15 06:20:51;;;;;;;2.30;2.13;;;;;;;;;;5063063;28;20202;-57
2023/04/15 06:23:18;;;;;;;7.60;2.33;;;;;;;;;;5051691;28;20230;-56
2023/04/15 06:25:45;;;;;;;2.27;2.07;;;;;;;;;;5057670;28;20199;-56
2023/04/15 06:28:12;;;;;;;4.27;2.80;;;;;;;;;;5049704;28;20322;-56
2023/04/15 06:30:39;;;;;;;2.43;2.23;;;;;;;;;;5049639;28;20203;-57
2023/04/15 06:33:06;;;;;;;2.30;2.10;;;;;;;;;;5058446;28;20215;-57
2023/04/15 06:35:34;;;;;;;1.87;1.77;;;;;;;;;;5066807;28;20924;-56
2023/04/15 06:38:01;;;;;;;2.17;1.60;;;;;;;;;;5068012;28;20221;-57
2023/04/15 06:40:29;;;;;;;2.00;1.80;;;;;;;;;;5056558;28;20239;-57
2023/04/15 06:42:56;;;;;;;2.63;2.43;;;;;;;;;;5048805;28;20211;-56
2023/04/15 06:45:23;;;;;;;6.73;4.50;;;;;;;;;;5050658;28;20211;-56
2023/04/15 06:47:50;;;;;;;2.93;2.03;;;;;;;;;;5068126;28;20208;-56
2023/04/15 06:50:17;;;;;;;3.70;2.33;;;;;;;;;;5067258;28;20297;-56
2023/04/15 06:52:46;;;;;;;10.40;3.93;;;;;;;;;;5055628;28;20203;-56
2023/04/15 06:55:13;;;;;;;2.30;2.20;;;;;;;;;;5048194;28;20298;-56
2023/04/15 06:57:40;;;;;;;2.17;2.03;;;;;;;;;;5049678;28;20207;-56
2023/04/15 07:00:10;;;;;;;4.33;1.67;;;;;;;;;;5048393;28;20214;-56
2023/04/15 07:02:37;;;;;;;2.00;1.90;;;;;;;;;;5053444;28;20211;-56
2023/04/15 07:05:04;;;;;;;1.40;1.30;;;;;;;;;;5048403;28;20216;-56
2023/04/15 07:07:31;;;;;;;3.37;1.53;;;;;;;;;;5049074;28;20239;-58
2023/04/15 07:10:00;;;;;;;1.73;1.63;;;;;;;;;;5054342;28;20234;-57
2023/04/15 07:12:28;;;;;;;3.80;1.77;;;;;;;;;;5056192;28;20688;-54
2023/04/15 07:14:55;;;;;;;1.40;1.30;;;;;;;;;;5067834;28;20211;-57
2023/04/15 07:17:22;;;;;;;2.77;1.50;;;;;;;;;;5066296;28;20207;-57
2023/04/15 07:19:49;;;;;;;2.03;1.27;;;;;;;;;;5068131;28;20673;-57
2023/04/15 07:22:16;;;;;;;1.47;1.47;;;;;;;;;;5067773;28;20227;-58
2023/04/15 07:24:43;;;;;;;1.10;1.10;;;;;;;;;;5067239;28;20207;-57
2023/04/15 07:27:12;;;;;;;1.83;1.40;;;;;;;;;;5063521;28;20206;-57
2023/04/15 07:29:39;;;;;;;3.23;1.60;;;;;;;;;;5047808;28;20230;-57
2023/04/15 07:32:06;;;;;;;1.43;1.33;;;;;;;;;;5054793;28;20206;-58
2023/04/15 07:34:33;;;;;;;1.90;1.80;;;;;;;;;;5047883;28;20219;-57
2023/04/15 07:37:00;;;;;;;1.53;1.53;;;;;;;;;;5059821;28;20328;-58
2023/04/15 07:39:28;;;;;;;3.50;1.77;;;;;;;;;;5067452;28;20243;-57
2023/04/15 07:41:55;;;;;;;2.10;2.00;;;;;;;;;;5060519;28;20196;-58
2023/04/15 07:44:23;;;;;;;2.67;2.57;;;;;;;;;;5068213;28;20238;-58
2023/04/15 07:46:50;;;;;;;2.60;2.40;;;;;;;;;;5058975;28;20203;-57
2023/04/15 07:49:18;;;;;;;2.43;2.30;;;;;;;;;;5047458;28;20236;-57
2023/04/15 07:51:45;;;;;;;4.90;3.30;;;;;;;;;;5057557;28;20302;-57
2023/04/15 07:54:12;;;;;;;2.20;2.10;;;;;;;;;;5049989;28;20212;-57
2023/04/15 07:56:39;;;;;;;2.73;2.53;;;;;;;;;;5054916;28;20199;-57
2023/04/15 07:59:06;;;;;;;3.57;2.13;;;;;;;;;;5047953;28;20208;-57
2023/04/15 08:01:34;;;;;;;2.50;2.10;;;;;;;;;;5055779;28;20886;-58
2023/04/15 08:04:01;;;;;;;2.03;1.93;;;;;;;;;;5067282;28;20301;-57
2023/04/15 08:06:29;;;;;;;2.13;2.03;;;;;;;;;;5060773;28;20758;-57
2023/04/15 08:08:56;;;;;;;2.00;1.90;;;;;;;;;;5064654;28;20249;-57
2023/04/15 08:11:23;;;;;;;6.70;2.67;;;;;;;;;;5065448;28;20203;-57
2023/04/15 08:13:50;;;;;;;3.10;2.70;;;;;;;;;;5067566;28;20673;-57
2023/04/15 08:16:19;;;;;;;2.43;2.33;;;;;;;;;;5067166;28;20261;-57
2023/04/15 08:18:47;;;;;;;4.13;3.00;;;;;;;;;;5067375;28;20285;-57
2023/04/15 08:21:14;;;;;;;1.53;1.53;;;;;;;;;;5052311;28;20577;-57
2023/04/15 08:23:41;;;;;;;2.53;2.37;;;;;;;;;;5047594;28;20238;-57
2023/04/15 08:26:08;;;;;;;6.20;3.50;;;;;;;;;;5051162;28;20207;-58
2023/04/15 08:28:35;;;;;;;2.60;2.40;;;;;;;;;;5051189;28;20235;-58
2023/04/15 08:31:02;;;;;;;3.10;2.90;;;;;;;;;;5051100;28;20919;-57
2023/04/15 08:33:29;;;;;;;2.57;2.40;;;;;;;;;;5058184;28;20673;-58
2023/04/15 08:35:58;;;;;;;2.77;2.53;;;;;;;;;;5054233;28;20582;-58
2023/04/15 08:38:25;;;;;;;3.33;3.03;;;;;;;;;;5050981;28;20211;-58
2023/04/15 08:40:52;;;;;;;2.30;2.20;;;;;;;;;;5050716;28;20303;-58
2023/04/15 08:43:22;;;;;;;3.30;2.40;;;;;;;;;;5062597;28;20203;-58
2023/04/15 08:45:51;;;;;;;4.33;2.53;;;;;;;;;;5069083;28;20708;-58
2023/04/15 08:48:18;;;;;;;2.40;2.30;;;;;;;;;;5061273;28;20741;-57
2023/04/15 08:50:46;;;;;;;2.77;2.67;;;;;;;;;;5050643;28;20697;-57
2023/04/15 08:53:15;;;;;;;4.72;2.70;;;;;;;;;;5050955;28;20239;-58
2023/04/15 08:55:44;;;;;;;2.38;2.17;;;;;;;;;;5051681;28;20215;-58
2023/04/15 08:58:12;;;;;;;1.50;1.40;;;;;;;;;;5047536;28;20270;-58
2023/04/15 09:00:39;;;;;;;1.83;1.70;;;;;;;;;;5053243;28;20202;-58
2023/04/15 09:03:06;;;;;;;3.45;2.10;;;;;;;;;;5068357;28;20358;-58
2023/04/15 09:05:34;;;;;;;3.58;2.15;;;;;;;;;;5067060;28;20577;-58
2023/04/15 09:08:01;;;;;;;3.17;1.50;;;;;;;;;;5070487;28;20207;-58
2023/04/15 09:10:29;;;;;;;1.90;1.90;;;;;;;;;;5069737;28;20685;-58
2023/04/15 09:12:56;;;;;;;3.03;1.80;;;;;;;;;;5069939;28;20215;-58
2023/04/15 09:15:26;;;;;;;1.00;1.00;;;;;;;;;;5067509;28;20214;-58
2023/04/15 09:17:53;;;;;;;1.23;1.23;;;;;;;;;;5066700;28;20301;-58
2023/04/15 09:20:20;;;;;;;1.10;1.10;;;;;;;;;;5059619;28;20204;-56
2023/04/15 09:22:49;;;;;;;1.10;1.10;;;;;;;;;;5050352;28;20235;-56
2023/04/15 09:25:31;;;;;;;3.80;1.60;;;;;;;;;;5050290;28;20300;-56
2023/04/15 09:27:59;;;;;;;3.03;1.42;;;;;;;;;;5050341;28;20598;-56
2023/04/15 09:30:27;;;;;;;1.35;1.33;;;;;;;;;;5070127;28;20242;-56
2023/04/15 09:32:55;;;;;;;1.20;1.17;;;;;;;;;;5069365;28;20218;-56
2023/04/15 09:35:23;;;;;;;1.40;1.30;;;;;;;;;;5069137;28;20235;-56
2023/04/15 09:37:50;;;;;;;1.20;1.10;;;;;;;;;;5057868;28;20196;-56
2023/04/15 09:40:33;;;;;;;1.25;1.15;;;;;;;;;;5064745;28;20232;-56
2023/04/15 09:43:00;;;;;;;1.13;1.10;;;;;;;;;;5050007;28;20238;-58
2023/04/15 09:45:28;;;;;;;2.10;1.00;;;;;;;;;;5047802;28;20211;-55
2023/04/15 09:47:55;;;;;;;2.17;1.00;;;;;;;;;;5050718;28;20207;-56
2023/04/15 09:50:22;;;;;;;1.13;1.10;;;;;;;;;;5067968;28;20238;-56
2023/04/15 09:52:49;;;;;;;1.00;1.00;;;;;;;;;;5068734;28;20677;-58
2023/04/15 09:55:16;;;;;;;3.35;1.35;;;;;;;;;;5067681;28;20206;-58
2023/04/15 09:57:46;;;;;;;1.25;1.15;;;;;;;;;;5054975;28;20227;-56
2023/04/15 10:00:13;;;;;;;2.60;1.52;;;;;;;;;;5056982;28;20681;-57
2023/04/15 10:02:41;;;;;;;1.58;1.50;;;;;;;;;;5053450;28;20207;-57
2023/04/15 10:05:11;;;;;;;1.38;1.35;;;;;;;;;;5050080;28;20239;-56
2023/04/15 10:07:39;;;;;;;1.65;1.40;;;;;;;;;;5054156;28;20835;-56
2023/04/15 10:10:08;;;;;;;1.20;1.20;;;;;;;;;;5065237;28;20601;-57
2023/04/15 10:12:37;;;;;;;1.05;1.02;;;;;;;;;;5051680;28;21050;-56
2023/04/15 10:15:06;;;;;;;1.13;1.13;;;;;;;;;;5059833;28;20685;-56
2023/04/15 10:17:35;;;;;;;2.10;1.40;;;;;;;;;;5058915;28;20305;-56
2023/04/15 10:20:03;;;;;;;1.15;1.15;;;;;;;;;;5065272;28;20207;-56
2023/04/15 10:22:31;;;;;;;1.35;1.30;;;;;;;;;;5054243;28;20793;-56
2023/04/15 10:24:59;;;;;;;2.13;1.70;;;;;;;;;;5058921;28;20584;-56
2023/04/15 10:27:27;;;;;;;2.75;1.58;;;;;;;;;;5061482;28;20739;-56
2023/04/15 10:29:54;;;;;;;1.17;1.17;;;;;;;;;;5068591;28;20257;-56
2023/04/15 10:32:25;;;;;;;1.30;1.30;;;;;;;;;;5067606;28;20253;-56
2023/04/15 10:34:52;;;;;;;1.67;1.45;;;;;;;;;;5068381;28;20745;-57
2023/04/15 10:37:23;;;;;;;1.42;1.30;;;;;;;;;;5068004;28;20211;-57
2023/04/15 10:39:50;;;;;;;1.27;1.20;;;;;;;;;;5054311;28;20223;-56
2023/04/15 10:42:18;;;;;;;1.10;1.02;;;;;;;;;;5068265;28;20215;-57
2023/04/15 10:44:46;;;;;;;0.90;0.90;;;;;;;;;;5066535;28;20210;-57
2023/04/15 10:47:14;;;;;;;1.00;0.95;;;;;;;;;;5066936;28;20218;-57
2023/04/15 10:49:46;;;;;;;1.45;0.60;;;;;;;;;;5068010;28;20254;-56
2023/04/15 10:52:13;;;;;;;0.57;0.57;;;;;;;;;;5056535;28;20215;-59
2023/04/15 10:54:40;;;;;;;0.73;0.73;;;;;;;;;;5048203;28;20232;-56
2023/04/15 10:57:09;;;;;;;0.57;0.57;;;;;;;;;;5048043;28;20565;-57
2023/04/15 10:59:37;;;;;;;1.33;0.80;;;;;;;;;;5048490;28;20298;-57
2023/04/15 11:02:05;;;;;;;0.50;0.50;;;;;;;;;;5048111;28;20215;-57
2023/04/15 11:04:51;;;;;;;0.68;0.68;;;;;;;;;;5061425;28;20238;-56
2023/04/15 11:07:33;;;;;;;2.00;0.40;;;;;;;;;;5051287;28;20203;-57
2023/04/15 11:10:01;;;;;;;0.60;0.55;;;;;;;;;;5067681;28;20803;-56
2023/04/15 11:12:34;;;;;;;0.68;0.68;;;;;;;;;;5048062;28;20227;-57
2023/04/15 11:15:22;;;;;;;3.38;0.60;;;;;;;;;;5057752;28;20285;-57
2023/04/15 11:17:49;;;;;;;0.57;0.50;;;;;;;;;;5066080;28;20647;-56
2023/04/15 11:20:16;;;;;;;0.52;0.52;;;;;;;;;;5061869;28;20214;-56
2023/04/15 11:22:47;;;;;;;0.28;0.28;;;;;;;;;;5065935;28;20219;-58
2023/04/15 11:25:24;;;;;;;2.05;0.70;;;;;;;;;;5060293;28;20208;-56
2023/04/15 11:27:53;;;;;;;0.40;0.40;;;;;;;;;;5059736;28;20710;-57
2023/04/15 11:30:21;;;;;;;0.50;0.50;;;;;;;;;;5061830;28;20597;-57
2023/04/15 11:32:48;;;;;;;0.40;0.40;;;;;;;;;;5063793;28;20246;-56
2023/04/15 11:35:17;;;;;;;0.75;0.47;;;;;;;;;;5061825;28;20700;-56
2023/04/15 11:37:44;;;;;;;1.65;0.50;;;;;;;;;;5047199;28;20210;-56
2023/04/15 11:40:12;;;;;;;0.60;0.60;;;;;;;;;;5049556;28;20234;-56
2023/04/15 11:42:40;;;;;;;0.50;0.50;;;;;;;;;;5067281;28;20301;-57
2023/04/15 11:45:08;;;;;;;0.30;0.30;;;;;;;;;;5066581;28;20465;-57
2023/04/15 11:47:35;;;;;;;0.50;0.50;;;;;;;;;;5060290;28;20206;-57
2023/04/15 11:50:15;;;;;;;1.30;0.88;;;;;;;;;;5051975;28;20318;-57
2023/04/15 11:52:42;;;;;;;0.55;0.55;;;;;;;;;;5053445;28;20309;-56
2023/04/15 11:55:09;;;;;;;0.43;0.43;;;;;;;;;;5056190;28;20203;-57
2023/04/15 11:57:36;;;;;;;0.40;0.40;;;;;;;;;;5067355;28;20209;-57
2023/04/15 12:00:05;;;;;;;0.52;0.50;;;;;;;;;;5061419;28;20210;-57
2023/04/15 12:02:32;;;;;;;1.13;0.52;;;;;;;;;;5063966;28;21010;-56
2023/04/15 12:05:06;;;;;;;0.30;0.30;;;;;;;;;;5070838;28;20572;-57
2023/04/15 12:07:33;;;;;;;0.40;0.40;;;;;;;;;;5066265;28;20257;-57
2023/04/15 12:10:00;;;;;;;0.50;0.50;;;;;;;;;;5050839;28;20625;-56
2023/04/15 12:12:28;;;;;;;0.30;0.30;;;;;;;;;;5052424;28;20215;-58
2023/04/15 12:14:58;;;;;;;0.40;0.40;;;;;;;;;;5050919;28;20290;-59
2023/04/15 12:17:26;;;;;;;0.30;0.30;;;;;;;;;;5060912;28;20219;-56
2023/04/15 12:19:56;;;;;;;0.30;0.30;;;;;;;;;;5058962;28;20578;-57
2023/04/15 12:22:24;;;;;;;0.40;0.40;;;;;;;;;;5051487;28;20361;-57
2023/04/15 12:24:56;;;;;;;0.60;0.38;;;;;;;;;;5059626;28;20237;-57
2023/04/15 12:27:27;;;;;;;0.20;0.20;;;;;;;;;;5068984;28;20235;-57
2023/04/15 12:30:04;;;;;;;0.10;0.10;;;;;;;;;;5069309;28;20247;-57
2023/04/15 12:32:35;;;;;;;0.40;0.40;;;;;;;;;;5067627;28;20242;-57
2023/04/15 12:35:02;;;;;;;0.40;0.30;;;;;;;;;;5058262;28;20317;-57
2023/04/15 12:37:29;;;;;;;0.22;0.15;;;;;;;;;;5065187;28;20688;-56
2023/04/15 12:39:56;;;;;;;0.30;0.30;;;;;;;;;;5068806;28;20820;-62
2023/04/15 12:42:24;;;;;;;0.30;0.30;;;;;;;;;;5057815;28;20208;-58
2023/04/15 12:44:51;;;;;;;0.17;0.17;;;;;;;;;;5057696;28;20573;-57
2023/04/15 12:47:18;;;;;;;0.27;0.27;;;;;;;;;;5057323;28;20211;-58
2023/04/15 12:49:48;;;;;;;0.30;0.30;;;;;;;;;;5050035;28;20200;-58
2023/04/15 12:52:15;;;;;;;0.10;0.10;;;;;;;;;;5048295;28;20238;-57
2023/04/15 12:54:42;;;;;;;0.40;0.40;;;;;;;;;;5065742;28;20211;-58
2023/04/15 12:57:09;;;;;;;0.30;0.30;;;;;;;;;;5055743;28;20253;-57
2023/04/15 12:59:37;;;;;;;0.20;0.20;;;;;;;;;;5060916;28;20211;-57
2023/04/15 13:02:04;;;;;;;1.20;0.20;;;;;;;;;;5070188;28;20214;-58
2023/04/15 13:04:31;;;;;;;0.27;0.27;;;;;;;;;;5069350;28;20219;-58
2023/04/15 13:07:00;;;;;;;0.00;0.00;;;;;;;;;;5069899;28;20207;-57
2023/04/15 13:09:27;;;;;;;0.10;0.10;;;;;;;;;;5054421;28;20215;-57
2023/04/15 13:11:54;;;;;;;0.20;0.20;;;;;;;;;;5052199;28;20231;-58
2023/04/15 13:14:21;;;;;;;0.10;0.10;;;;;;;;;;5059646;28;20270;-58
2023/04/15 13:16:49;;;;;;;0.20;0.20;;;;;;;;;;5049978;28;20218;-57
2023/04/15 13:19:16;;;;;;;0.20;0.20;;;;;;;;;;5058479;28;20256;-57
2023/04/15 13:21:43;;;;;;;0.20;0.20;;;;;;;;;;5069999;28;20210;-58
2023/04/15 13:24:11;;;;;;;0.10;0.10;;;;;;;;;;5065694;28;20732;-57
2023/04/15 13:26:38;;;;;;;0.00;0.00;;;;;;;;;;5050316;28;20265;-58
2023/04/15 13:29:05;;;;;;;1.10;0.20;;;;;;;;;;5061495;28;20208;-57
2023/04/15 13:31:32;;;;;;;0.10;0.10;;;;;;;;;;5054904;28;20698;-57
2023/04/15 13:33:59;;;;;;;0.10;0.10;;;;;;;;;;5069060;28;20211;-58
2023/04/15 13:36:27;;;;;;;0.33;0.33;;;;;;;;;;5064110;28;20208;-57
2023/04/15 13:38:54;;;;;;;0.30;0.30;;;;;;;;;;5060105;28;20266;-57
2023/04/15 13:41:22;;;;;;;0.30;0.30;;;;;;;;;;5057161;28;20195;-58
2023/04/15 13:43:50;;;;;;;0.10;0.10;;;;;;;;;;5050020;28;20211;-58
2023/04/15 13:46:17;;;;;;;0.83;0.10;;;;;;;;;;5065465;28;20200;-58
2023/04/15 13:48:44;;;;;;;0.30;0.30;;;;;;;;;;5065491;28;20222;-57
2023/04/15 13:51:11;;;;;;;0.20;0.20;;;;;;;;;;5063067;28;20627;-58
2023/04/15 13:53:38;;;;;;;0.40;0.40;;;;;;;;;;5062063;28;20203;-58
2023/04/15 13:56:05;;;;;;;0.20;0.20;;;;;;;;;;5048012;28;20211;-58
2023/04/15 13:58:33;;;;;;;0.30;0.30;;;;;;;;;;5048062;28;20212;-57
2023/04/15 14:01:00;;;;;;;0.20;0.20;;;;;;;;;;5047632;28;20199;-57
2023/04/15 14:03:27;;;;;;;0.20;0.20;;;;;;;;;;5046896;28;20641;-58
2023/04/15 14:05:55;;;;;;;0.30;0.30;;;;;;;;;;5066781;28;20938;-57
2023/04/15 14:08:22;;;;;;;1.07;0.40;;;;;;;;;;5064393;28;20594;-58
2023/04/15 14:10:50;;;;;;;0.50;0.40;;;;;;;;;;5059456;28;20236;-57
2023/04/15 14:13:18;;;;;;;0.50;0.30;;;;;;;;;;5059099;28;20670;-57
2023/04/15 14:15:46;;;;;;;0.40;0.40;;;;;;;;;;5065762;28;20215;-57
2023/04/15 14:18:13;;;;;;;0.30;0.30;;;;;;;;;;5047381;28;20211;-57
2023/04/15 14:20:40;;;;;;;0.40;0.40;;;;;;;;;;5057272;28;20218;-57
2023/04/15 14:23:07;;;;;;;0.33;0.33;;;;;;;;;;5056759;28;20230;-55
2023/04/15 14:25:34;;;;;;;0.40;0.40;;;;;;;;;;5057472;28;20685;-56
2023/04/15 14:28:02;;;;;;;0.33;0.33;;;;;;;;;;5048208;28;20265;-56
2023/04/15 14:30:29;;;;;;;0.40;0.40;;;;;;;;;;5062428;28;20229;-56
2023/04/15 14:32:57;;;;;;;0.70;0.70;;;;;;;;;;5063880;28;20207;-57
2023/04/15 14:35:25;;;;;;;0.47;0.47;;;;;;;;;;5053678;28;20212;-56
2023/04/15 14:37:53;;;;;;;0.57;0.57;;;;;;;;;;5048265;28;20285;-56
2023/04/15 14:40:20;;;;;;;0.77;0.60;;;;;;;;;;5060244;28;20238;-56
2023/04/15 14:42:47;;;;;;;0.80;0.80;;;;;;;;;;5052680;28;20222;-56
2023/04/15 14:45:14;;;;;;;0.60;0.60;;;;;;;;;;5050765;28;20667;-56
2023/04/15 14:47:41;;;;;;;0.40;0.40;;;;;;;;;;5054812;28;20213;-57